Time;durP1;ratioP1;P1;durP2;ratioP2;P2;SDS_P1;SDS_P2;PMS_P1;PMS_P2;Temp;Humidity;BMP_temperature;BMP_pressure;BME280_temperature;BME280_humidity;BME280_pressure;Samples;Min_cycle;Max_cycle;Signal;HPM_P1;HPM_P2
2021/08/27 02:08:47;;;;;;;;;;;;;;;;;;;;;
2021/08/27 02:11:31;;;;;;;5.78;2.67;;;13.00;82.80;;;;;;5034151;28;20045;-91
2021/08/27 02:14:09;;;;;;;5.63;2.63;;;13.00;83.60;;;;;;5017657;28;20029;-90
2021/08/27 02:16:50;;;;;;;;;;;;;;;;;;;;;
2021/08/27 02:19:45;;;;;;;8.20;2.90;;;12.90;83.90;;;;;;5030094;28;20043;-90
2021/08/27 02:22:25;;;;;;;9.85;3.10;;;13.00;83.40;;;;;;5016703;28;20468;-90
2021/08/27 02:24:58;;;;;;;7.22;2.85;;;13.00;83.80;;;;;;5017636;28;20032;-91
2021/08/27 02:27:24;;;;;;;7.80;2.80;;;12.90;83.70;;;;;;5017371;28;20017;-91
2021/08/27 02:29:55;;;;;;;7.28;2.13;;;13.00;83.80;;;;;;5016877;28;20041;-92
2021/08/27 02:32:21;;;;;;;9.30;2.83;;;13.00;83.70;;;;;;5017611;28;20017;-89
2021/08/27 02:34:49;;;;;;;6.72;2.47;;;13.00;83.40;;;;;;5017465;28;20033;-91
2021/08/27 02:37:18;;;;;;;6.93;2.45;;;13.00;83.60;;;;;;5016577;28;20033;-89
2021/08/27 02:39:44;;;;;;;7.00;2.90;;;13.00;83.80;;;;;;5016613;28;20029;-90
2021/08/27 02:42:10;;;;;;;6.30;2.72;;;13.00;84.30;;;;;;5016628;28;20076;-90
2021/08/27 02:44:36;;;;;;;8.75;2.67;;;12.90;84.30;;;;;;5015075;28;20401;-91
2021/08/27 02:47:03;;;;;;;7.00;3.03;;;12.90;84.00;;;;;;5016742;28;20030;-92
2021/08/27 02:49:29;;;;;;;6.13;2.45;;;12.90;83.70;;;;;;5016415;28;20034;-90
2021/08/27 02:52:09;;;;;;;6.80;2.60;;;12.90;84.00;;;;;;5016126;28;20120;-89
2021/08/27 02:55:03;;;;;;;7.85;2.80;;;12.90;83.70;;;;;;5017454;28;20022;-89
2021/08/27 02:57:42;;;;;;;7.72;2.95;;;13.00;84.00;;;;;;5016517;28;20037;-87
2021/08/27 03:00:08;;;;;;;7.40;3.00;;;12.90;84.00;;;;;;5003044;28;20033;-90
2021/08/27 03:02:34;;;;;;;8.38;3.05;;;12.90;84.40;;;;;;5017027;28;20024;-89
2021/08/27 03:05:22;;;;;;;6.65;2.90;;;12.80;84.00;;;;;;5016497;28;20087;-90
2021/08/27 03:08:02;;;;;;;6.90;3.13;;;12.90;84.00;;;;;;5012512;28;20097;-90
2021/08/27 03:10:34;;;;;;;8.35;2.53;;;12.90;83.90;;;;;;5012371;28;20042;-93
2021/08/27 03:13:10;;;;;;;9.02;3.10;;;12.90;84.00;;;;;;5013638;28;20030;-90
2021/08/27 03:15:39;;;;;;;6.18;3.00;;;12.90;84.40;;;;;;5014009;28;20018;-90
2021/08/27 03:18:13;;;;;;;5.57;2.53;;;12.90;84.00;;;;;;5013927;28;20038;-90
2021/08/27 03:20:56;;;;;;;5.05;2.60;;;12.90;84.20;;;;;;5013460;28;20026;-89
2021/08/27 03:23:23;;;;;;;5.20;2.90;;;12.80;84.30;;;;;;5025657;28;20018;-91
2021/08/27 03:25:50;;;;;;;8.23;2.95;;;12.90;84.90;;;;;;5014155;28;20050;-92
2021/08/27 03:28:28;;;;;;;5.75;2.80;;;12.90;84.80;;;;;;5013703;28;20041;-90
2021/08/27 03:30:56;;;;;;;4.85;2.75;;;12.90;84.70;;;;;;5013309;28;20042;-91
2021/08/27 03:33:25;;;;;;;6.40;3.10;;;13.00;84.40;;;;;;5013828;28;20029;-91
2021/08/27 03:35:54;;;;;;;7.28;2.60;;;12.90;84.10;;;;;;5013283;28;20387;-90
2021/08/27 03:38:24;;;;;;;7.32;2.75;;;12.90;84.00;;;;;;5013246;28;20466;-92
2021/08/27 03:40:51;;;;;;;7.88;2.85;;;12.90;84.10;;;;;;5013727;28;20387;-90
2021/08/27 03:43:18;;;;;;;6.45;2.70;;;12.90;84.90;;;;;;5013881;28;20038;-91
2021/08/27 03:45:45;;;;;;;6.93;3.00;;;12.80;84.70;;;;;;5013895;28;20113;-92
2021/08/27 03:48:11;;;;;;;5.60;2.75;;;12.90;85.50;;;;;;5013631;28;20452;-92
2021/08/27 03:50:38;;;;;;;8.93;3.33;;;12.90;84.90;;;;;;5013074;28;20033;-90
2021/08/27 03:53:07;;;;;;;6.93;3.00;;;12.90;84.90;;;;;;5013204;28;20026;-91
2021/08/27 03:55:33;;;;;;;7.60;3.22;;;12.90;84.90;;;;;;5012980;28;20145;-90
2021/08/27 03:58:00;;;;;;;6.43;3.08;;;12.80;85.00;;;;;;5013148;28;20121;-91
2021/08/27 04:00:26;;;;;;;7.28;2.88;;;12.90;85.00;;;;;;5012589;28;20057;-92
2021/08/27 04:02:53;;;;;;;5.88;2.50;;;12.80;85.20;;;;;;5011442;28;20486;-92
2021/08/27 04:05:21;;;;;;;8.02;3.10;;;12.80;84.90;;;;;;5012564;28;20022;-91
2021/08/27 04:07:47;;;;;;;5.07;2.72;;;12.80;85.80;;;;;;5012204;28;20048;-90
2021/08/27 04:10:19;;;;;;;5.13;2.95;;;12.80;85.20;;;;;;5012913;28;20042;-90
2021/08/27 04:12:45;;;;;;;8.35;3.20;;;12.80;85.30;;;;;;5012523;28;20104;-91
2021/08/27 04:15:13;;;;;;;5.95;2.80;;;12.90;85.30;;;;;;5012628;28;20069;-92
2021/08/27 04:17:42;;;;;;;7.72;2.75;;;12.80;85.80;;;;;;5012957;28;20026;-90
2021/08/27 04:20:11;;;;;;;8.43;3.22;;;12.80;85.50;;;;;;5012215;28;20120;-89
2021/08/27 04:22:37;;;;;;;7.28;2.70;;;12.80;85.70;;;;;;5012181;28;20056;-89
2021/08/27 04:25:04;;;;;;;9.50;3.17;;;12.80;86.00;;;;;;5012132;28;20564;-89
2021/08/27 04:27:30;;;;;;;5.35;2.70;;;12.90;85.90;;;;;;5011789;28;20014;-88
2021/08/27 04:29:55;;;;;;;6.15;2.88;;;12.90;85.80;;;;;;5013725;28;20040;-90
2021/08/27 04:32:21;;;;;;;6.90;2.50;;;12.90;85.90;;;;;;5012814;28;20029;-90
2021/08/27 04:34:47;;;;;;;6.47;3.50;;;12.90;85.90;;;;;;5012553;28;20514;-91
2021/08/27 04:37:13;;;;;;;7.05;2.85;;;13.00;85.90;;;;;;5012782;28;20084;-92
2021/08/27 04:39:39;;;;;;;7.78;2.90;;;13.00;86.00;;;;;;5012951;28;20041;-92
2021/08/27 04:42:05;;;;;;;5.70;2.42;;;13.00;85.90;;;;;;5013431;28;20018;-90
2021/08/27 04:44:30;;;;;;;7.07;2.90;;;13.00;85.50;;;;;;5012720;28;20037;-92
2021/08/27 04:46:56;;;;;;;6.22;3.05;;;13.00;85.80;;;;;;5012129;28;20399;-91
2021/08/27 04:49:22;;;;;;;6.47;2.97;;;12.90;86.30;;;;;;5003708;28;20038;-91
2021/08/27 04:51:48;;;;;;;6.45;2.97;;;12.90;85.70;;;;;;5012510;28;20054;-91
2021/08/27 04:54:13;;;;;;;6.30;2.78;;;12.90;86.20;;;;;;5016393;28;20113;-92
2021/08/27 04:56:39;;;;;;;6.50;2.83;;;12.90;86.00;;;;;;5016328;28;20030;-91
2021/08/27 04:59:05;;;;;;;5.85;2.45;;;12.90;85.90;;;;;;5016523;28;20025;-91
2021/08/27 05:01:31;;;;;;;5.70;2.75;;;12.90;85.90;;;;;;5015223;28;20121;-91
2021/08/27 05:03:56;;;;;;;7.32;3.30;;;12.90;86.40;;;;;;5016303;28;20501;-91
2021/08/27 05:06:22;;;;;;;6.38;3.00;;;12.90;86.70;;;;;;5021154;28;20047;-91
2021/08/27 05:08:48;;;;;;;5.57;3.00;;;12.80;86.80;;;;;;5020807;28;20021;-91
2021/08/27 05:11:14;;;;;;;6.45;2.67;;;12.90;86.30;;;;;;5019915;28;20496;-91
2021/08/27 05:13:39;;;;;;;6.28;2.65;;;12.80;86.40;;;;;;5020000;28;20116;-90
2021/08/27 05:16:05;;;;;;;5.72;2.35;;;12.80;87.10;;;;;;5019993;28;20032;-89
2021/08/27 05:18:31;;;;;;;7.15;2.50;;;12.90;87.90;;;;;;5019291;28;20025;-90
2021/08/27 05:20:57;;;;;;;6.88;3.08;;;12.90;86.60;;;;;;5019360;28;20029;-89
2021/08/27 05:23:23;;;;;;;6.40;2.80;;;12.80;86.50;;;;;;5038222;28;20209;-89
2021/08/27 05:25:49;;;;;;;6.07;2.80;;;12.90;86.60;;;;;;5019680;28;20139;-90
2021/08/27 05:28:15;;;;;;;7.35;2.63;;;12.90;87.00;;;;;;5019288;28;20026;-90
2021/08/27 05:30:40;;;;;;;7.43;3.00;;;13.00;87.20;;;;;;5018989;28;20045;-89
2021/08/27 05:33:06;;;;;;;6.88;3.17;;;13.00;87.00;;;;;;5036920;28;20025;-89
2021/08/27 05:35:32;;;;;;;5.55;2.55;;;12.90;87.00;;;;;;5037747;28;20034;-90
2021/08/27 05:38:00;;;;;;;5.45;3.38;;;13.00;86.90;;;;;;5020648;28;20052;-89
2021/08/27 05:40:26;;;;;;;4.88;2.78;;;13.00;86.90;;;;;;5019219;28;20434;-89
2021/08/27 05:42:52;;;;;;;6.72;2.67;;;13.10;87.00;;;;;;5035617;28;20049;-90
2021/08/27 05:45:19;;;;;;;7.80;3.08;;;13.20;86.60;;;;;;5019566;28;20064;-90
2021/08/27 05:47:45;;;;;;;7.07;2.67;;;13.20;86.60;;;;;;5019634;28;20025;-88
2021/08/27 05:50:13;;;;;;;5.05;2.28;;;13.30;86.50;;;;;;5018469;28;20033;-89
2021/08/27 05:52:39;;;;;;;8.35;2.80;;;13.40;86.20;;;;;;5017143;28;20064;-89
2021/08/27 05:55:06;;;;;;;5.72;2.88;;;13.40;86.20;;;;;;5020542;28;20032;-90
2021/08/27 05:57:32;;;;;;;6.03;2.60;;;13.40;85.60;;;;;;5020184;28;20025;-90
2021/08/27 05:59:58;;;;;;;5.20;2.60;;;13.50;85.70;;;;;;5019421;28;20029;-90
2021/08/27 06:02:24;;;;;;;6.70;2.78;;;13.60;85.80;;;;;;5019231;28;20367;-89
2021/08/27 06:04:49;;;;;;;10.73;2.80;;;13.60;85.60;;;;;;5018657;28;20025;-89
2021/08/27 06:07:15;;;;;;;5.13;2.72;;;13.70;85.60;;;;;;5019899;28;20541;-89
2021/08/27 06:09:42;;;;;;;6.30;2.60;;;13.70;85.40;;;;;;5019307;28;20063;-90
2021/08/27 06:12:10;;;;;;;6.05;2.65;;;13.80;85.40;;;;;;5015644;28;20025;-89
2021/08/27 06:14:37;;;;;;;5.15;2.70;;;13.80;85.00;;;;;;5003990;28;20025;-89
2021/08/27 06:17:03;;;;;;;7.00;2.42;;;13.90;85.00;;;;;;5002778;28;20104;-90
2021/08/27 06:19:28;;;;;;;6.68;2.50;;;14.00;85.00;;;;;;5006146;28;20176;-91
2021/08/27 06:21:58;;;;;;;4.90;2.53;;;14.00;84.80;;;;;;5017662;28;20029;-91
2021/08/27 06:24:26;;;;;;;8.48;2.63;;;14.10;84.80;;;;;;5010963;28;20038;-91
2021/08/27 06:26:58;;;;;;;7.80;2.25;;;14.10;84.30;;;;;;5017049;28;20037;-90
2021/08/27 06:29:34;;;;;;;6.75;2.28;;;14.30;84.40;;;;;;5016698;28;20029;-90
2021/08/27 06:32:29;;;;;;;4.47;2.17;;;14.30;84.20;;;;;;4998416;28;20048;-90
2021/08/27 06:35:00;;;;;;;7.28;2.40;;;14.30;83.90;;;;;;4939122;28;20042;-90
2021/08/27 06:40:14;;;;;;;5.75;2.13;;;14.40;83.70;;;;;;4968200;28;20042;-87
2021/08/27 06:42:40;;;;;;;7.65;2.50;;;14.40;83.20;;;;;;4957146;28;20428;-88
2021/08/27 06:45:07;;;;;;;5.88;1.95;;;14.40;83.20;;;;;;4954010;28;20118;-88
2021/08/27 06:47:33;;;;;;;6.63;2.20;;;14.50;83.10;;;;;;4957153;28;20027;-89
2021/08/27 06:49:58;;;;;;;5.40;1.98;;;14.50;82.80;;;;;;4973357;28;20488;-89
2021/08/27 06:52:24;;;;;;;5.68;2.28;;;14.50;82.80;;;;;;4973686;28;20042;-88
2021/08/27 06:54:50;;;;;;;6.20;2.10;;;14.50;82.80;;;;;;4954095;28;20132;-89
2021/08/27 06:57:16;;;;;;;6.32;2.10;;;14.60;82.90;;;;;;4944244;28;20553;-90
2021/08/27 06:59:41;;;;;;;5.53;2.20;;;14.60;82.50;;;;;;4957659;28;20595;-89
2021/08/27 07:02:07;;;;;;;5.10;2.08;;;14.60;81.90;;;;;;4957662;28;20117;-90
2021/08/27 07:04:34;;;;;;;7.35;2.10;;;14.70;81.70;;;;;;4957932;28;20043;-90
2021/08/27 07:07:00;;;;;;;4.82;1.85;;;14.70;81.50;;;;;;4958041;28;20137;-90
2021/08/27 07:09:26;;;;;;;6.75;2.55;;;14.70;81.60;;;;;;4957670;28;20125;-91
2021/08/27 07:11:51;;;;;;;6.90;2.58;;;14.80;81.50;;;;;;5004767;28;20045;-91
2021/08/27 07:14:17;;;;;;;6.20;1.98;;;14.80;81.50;;;;;;5016984;28;20390;-90
2021/08/27 07:16:43;;;;;;;6.97;2.13;;;14.90;81.00;;;;;;5014478;28;20398;-90
2021/08/27 07:19:08;;;;;;;6.13;2.10;;;14.90;80.80;;;;;;5016806;28;20025;-89
2021/08/27 07:21:34;;;;;;;6.00;1.90;;;15.00;80.90;;;;;;5014710;28;20448;-90
2021/08/27 07:24:00;;;;;;;7.72;2.03;;;15.00;81.10;;;;;;5016916;28;20037;-90
2021/08/27 07:26:25;;;;;;;4.78;1.80;;;15.10;80.80;;;;;;5016632;28;20026;-90
2021/08/27 07:28:54;;;;;;;4.38;1.92;;;15.10;80.90;;;;;;5016826;28;20159;-89
2021/08/27 07:31:20;;;;;;;5.68;2.25;;;15.20;80.90;;;;;;5016427;28;20042;-91
2021/08/27 07:33:45;;;;;;;5.25;2.05;;;15.20;80.40;;;;;;5016100;28;20041;-90
2021/08/27 07:36:11;;;;;;;6.57;2.38;;;15.30;80.40;;;;;;5010383;28;20030;-89
2021/08/27 07:38:37;;;;;;;6.68;1.77;;;15.30;80.00;;;;;;5032680;28;20127;-91
2021/08/27 07:41:03;;;;;;;4.47;1.83;;;15.40;80.30;;;;;;5008724;28;20049;-90
2021/08/27 07:43:28;;;;;;;5.53;1.95;;;15.50;80.30;;;;;;5014600;28;20060;-86
2021/08/27 07:45:57;;;;;;;3.75;1.88;;;15.50;80.00;;;;;;5030036;28;20040;-82
2021/08/27 07:48:27;;;;;;;4.45;1.60;;;15.60;80.10;;;;;;5022947;28;20029;-77
2021/08/27 07:50:52;;;;;;;4.63;1.77;;;15.60;78.60;;;;;;5017948;28;20112;-77
2021/08/27 07:53:18;;;;;;;6.78;2.10;;;15.60;78.90;;;;;;5009552;28;20458;-76
2021/08/27 07:55:44;;;;;;;7.63;2.00;;;15.70;78.80;;;;;;5021319;28;20045;-77
2021/08/27 07:58:10;;;;;;;6.13;1.60;;;15.80;78.80;;;;;;5023670;28;20060;-76
2021/08/27 08:00:36;;;;;;;6.18;2.00;;;15.80;78.90;;;;;;5031346;28;20025;-77
2021/08/27 08:03:01;;;;;;;6.97;1.92;;;15.90;78.80;;;;;;5031861;28;20051;-76
2021/08/27 08:05:27;;;;;;;5.35;1.90;;;15.90;79.10;;;;;;5026895;28;20471;-77
2021/08/27 08:07:53;;;;;;;7.15;1.92;;;16.00;78.90;;;;;;5031656;28;20581;-80
2021/08/27 08:10:19;;;;;;;6.70;1.85;;;16.00;78.60;;;;;;5031221;28;20049;-76
2021/08/27 08:12:44;;;;;;;5.10;2.15;;;16.10;78.50;;;;;;5031466;28;20049;-78
2021/08/27 08:15:10;;;;;;;6.22;2.00;;;16.10;78.00;;;;;;5013325;28;20559;-75
2021/08/27 08:17:36;;;;;;;8.30;2.17;;;16.20;78.40;;;;;;5030800;28;20029;-79
2021/08/27 08:20:02;;;;;;;5.30;1.88;;;16.20;77.90;;;;;;5031127;28;20025;-79
2021/08/27 08:22:28;;;;;;;5.88;1.80;;;16.30;77.60;;;;;;5030931;28;20109;-79
2021/08/27 08:24:53;;;;;;;4.65;2.33;;;16.30;77.70;;;;;;5030363;28;20121;-79
2021/08/27 08:27:19;;;;;;;8.10;1.92;;;16.30;77.10;;;;;;5030303;28;20583;-78
2021/08/27 08:29:45;;;;;;;6.07;2.20;;;16.30;76.80;;;;;;5031036;28;20044;-77
2021/08/27 08:32:10;;;;;;;6.50;2.35;;;16.30;77.20;;;;;;5013687;28;20052;-75
2021/08/27 08:34:36;;;;;;;6.32;2.40;;;16.40;77.50;;;;;;5003605;28;20041;-79
2021/08/27 08:37:01;;;;;;;6.03;2.22;;;16.50;77.60;;;;;;5032274;28;20057;-81
2021/08/27 08:39:27;;;;;;;6.03;2.22;;;16.60;77.40;;;;;;5032244;28;20036;-81
2021/08/27 08:41:54;;;;;;;7.95;2.10;;;16.70;76.90;;;;;;5032453;28;20037;-83
2021/08/27 08:44:19;;;;;;;4.28;2.13;;;16.80;77.10;;;;;;5032383;28;20017;-81
2021/08/27 08:46:47;;;;;;;4.18;1.75;;;16.80;76.70;;;;;;5033290;28;20539;-81
2021/08/27 08:49:14;;;;;;;5.07;1.95;;;16.90;76.20;;;;;;5010884;28;20078;-81
2021/08/27 08:51:49;;;;;;;6.93;2.10;;;17.00;76.40;;;;;;5028102;28;20030;-82
2021/08/27 08:54:16;;;;;;;9.35;2.20;;;17.10;76.30;;;;;;5029141;28;20022;-80
2021/08/27 08:56:42;;;;;;;9.15;2.55;;;17.10;74.30;;;;;;5023956;28;20049;-80
2021/08/27 08:59:08;;;;;;;4.63;2.10;;;17.10;73.00;;;;;;5029827;28;20088;-81
2021/08/27 09:01:33;;;;;;;6.55;2.08;;;17.10;74.10;;;;;;5031225;28;20401;-80
2021/08/27 09:03:59;;;;;;;7.30;2.10;;;17.20;74.70;;;;;;5029527;28;20454;-81
2021/08/27 09:06:33;;;;;;;7.22;2.03;;;17.20;72.90;;;;;;5012319;28;20053;-83
2021/08/27 09:09:00;;;;;;;6.72;2.20;;;17.30;73.20;;;;;;5026793;28;20025;-82
2021/08/27 09:11:27;;;;;;;7.43;2.05;;;17.30;72.50;;;;;;5030719;28;20036;-84
2021/08/27 09:13:58;;;;;;;5.07;2.28;;;17.30;71.30;;;;;;5013039;28;20026;-82
2021/08/27 09:16:27;;;;;;;5.45;2.13;;;17.40;72.80;;;;;;5034395;28;20040;-84
2021/08/27 09:18:53;;;;;;;6.20;2.45;;;17.50;72.20;;;;;;5023825;28;20048;-83
2021/08/27 09:21:45;;;;;;;6.15;2.42;;;17.60;73.00;;;;;;5028483;28;20104;-83
2021/08/27 09:24:25;;;;;;;5.72;2.03;;;17.80;74.10;;;;;;5027047;28;20483;-83
2021/08/27 09:26:50;;;;;;;6.95;2.05;;;17.90;71.50;;;;;;5025466;28;20060;-82
2021/08/27 09:29:38;;;;;;;7.13;2.20;;;17.80;67.90;;;;;;5029134;28;20037;-83
2021/08/27 09:32:17;;;;;;;7.85;2.33;;;17.70;69.30;;;;;;5010945;28;20181;-82
2021/08/27 09:34:43;;;;;;;8.50;2.03;;;17.70;70.40;;;;;;5031828;28;20022;-84
2021/08/27 09:37:09;;;;;;;5.38;1.88;;;17.70;68.90;;;;;;5028773;28;20025;-87
2021/08/27 09:39:35;;;;;;;4.10;1.85;;;17.70;70.50;;;;;;5014143;28;20095;-85
2021/08/27 09:42:02;;;;;;;5.00;2.15;;;17.70;71.00;;;;;;5010712;28;20449;-85
2021/08/27 09:44:27;;;;;;;5.63;2.20;;;17.80;70.50;;;;;;5014446;28;20101;-85
2021/08/27 09:46:53;;;;;;;5.13;1.92;;;17.90;69.40;;;;;;5032609;28;20026;-86
2021/08/27 09:49:27;;;;;;;6.40;2.00;;;17.90;69.30;;;;;;5034050;28;20067;-85
2021/08/27 09:51:54;;;;;;;5.63;2.20;;;17.80;68.50;;;;;;5030329;28;20240;-86
2021/08/27 09:54:30;;;;;;;7.00;2.35;;;18.00;68.20;;;;;;5032947;28;20121;-85
2021/08/27 09:57:00;;;;;;;6.38;2.17;;;18.00;69.20;;;;;;5032755;28;20033;-85
2021/08/27 09:59:44;;;;;;;3.70;1.90;;;18.10;67.40;;;;;;5035973;28;20026;-81
2021/08/27 10:02:16;;;;;;;5.10;2.00;;;18.10;69.30;;;;;;5014852;28;20022;-81
2021/08/27 10:05:02;;;;;;;5.25;1.60;;;18.10;67.80;;;;;;5031499;28;20136;-80
2021/08/27 10:07:30;;;;;;;6.72;1.88;;;18.20;68.30;;;;;;5029101;28;20042;-81
2021/08/27 10:10:00;;;;;;;7.97;2.00;;;18.20;67.80;;;;;;5018642;28;20045;-83
2021/08/27 10:12:32;;;;;;;5.53;2.15;;;18.20;66.40;;;;;;5011558;28;20025;-81
2021/08/27 10:14:58;;;;;;;6.28;2.00;;;18.30;67.20;;;;;;5028098;28;20079;-83
2021/08/27 10:17:24;;;;;;;6.20;1.73;;;18.30;67.70;;;;;;5034095;28;20048;-84
2021/08/27 10:19:51;;;;;;;5.13;2.03;;;18.30;67.30;;;;;;5035597;28;20056;-87
2021/08/27 10:22:17;;;;;;;4.55;1.88;;;18.30;68.00;;;;;;5033456;28;20056;-81
2021/08/27 10:24:44;;;;;;;6.45;2.30;;;18.40;67.70;;;;;;5032505;28;20021;-86
2021/08/27 10:27:11;;;;;;;5.38;2.25;;;18.60;67.30;;;;;;5029433;28;20075;-83
2021/08/27 10:29:57;;;;;;;5.28;1.80;;;18.80;66.80;;;;;;5036562;28;20032;-87
2021/08/27 10:32:44;;;;;;;6.40;2.22;;;18.90;65.90;;;;;;5022410;28;20029;-93
2021/08/27 10:35:30;;;;;;;5.38;2.15;;;18.90;65.00;;;;;;5016709;28;20026;-86
2021/08/27 10:37:55;;;;;;;4.30;1.80;;;18.70;63.70;;;;;;4999633;28;20077;-87
2021/08/27 10:40:25;;;;;;;6.22;2.00;;;18.80;65.40;;;;;;5032079;28;20114;-87
2021/08/27 10:42:56;;;;;;;4.95;2.65;;;18.80;66.60;;;;;;5015559;28;20021;-87
2021/08/27 10:45:40;;;;;;;4.45;1.70;;;19.00;66.60;;;;;;5032922;28;20026;-89
2021/08/27 10:48:08;;;;;;;4.13;1.92;;;19.10;65.30;;;;;;5004928;28;20048;-85
2021/08/27 10:50:34;;;;;;;6.25;2.13;;;19.10;63.50;;;;;;5036066;28;20563;-84
2021/08/27 10:53:37;;;;;;;4.53;1.70;;;19.10;64.60;;;;;;5035646;28;20088;-86
2021/08/27 10:56:27;;;;;;;5.75;2.15;;;19.10;65.80;;;;;;5039097;28;20433;-86
2021/08/27 10:58:53;;;;;;;4.45;2.00;;;19.30;65.40;;;;;;5033922;28;20490;-85
2021/08/27 11:01:33;;;;;;;7.15;2.33;;;19.50;64.60;;;;;;5019971;28;20025;-84
2021/08/27 11:04:12;;;;;;;4.93;1.88;;;19.50;64.50;;;;;;5034533;28;20047;-84
2021/08/27 11:06:47;;;;;;;5.25;1.90;;;19.40;62.60;;;;;;5042559;28;20037;-84
2021/08/27 11:09:14;;;;;;;6.38;2.10;;;19.50;63.30;;;;;;5042799;28;20022;-81
2021/08/27 11:11:40;;;;;;;6.88;2.00;;;19.30;61.80;;;;;;5012236;28;20030;-81
2021/08/27 11:14:20;;;;;;;6.53;1.90;;;19.40;63.20;;;;;;5017957;28;20029;-88
2021/08/27 11:17:00;;;;;;;4.00;1.67;;;19.50;63.30;;;;;;5014882;28;20124;-86
2021/08/27 11:19:30;;;;;;;4.22;1.55;;;19.70;65.50;;;;;;5031721;28;20024;-87
2021/08/27 11:22:16;;;;;;;4.90;1.80;;;19.90;63.90;;;;;;5032639;28;20037;-85
2021/08/27 11:25:02;;;;;;;4.15;1.73;;;19.90;62.70;;;;;;5033142;28;20025;-85
2021/08/27 11:27:28;;;;;;;4.57;1.35;;;20.00;63.90;;;;;;5032653;28;20038;-87
2021/08/27 11:29:55;;;;;;;4.78;1.90;;;20.00;62.90;;;;;;5013646;28;20167;-84
2021/08/27 11:32:27;;;;;;;4.68;1.80;;;20.10;62.30;;;;;;5023820;28;20041;-85
2021/08/27 11:35:00;;;;;;;2.85;1.75;;;20.20;63.20;;;;;;5031015;28;20032;-84
2021/08/27 11:37:38;;;;;;;8.00;2.28;;;20.10;61.00;;;;;;5013717;28;20030;-84
2021/08/27 11:40:09;;;;;;;3.58;1.65;;;19.90;61.90;;;;;;5017203;28;20029;-83
2021/08/27 11:42:37;;;;;;;3.75;1.90;;;19.70;61.40;;;;;;5034313;28;20027;-81
2021/08/27 11:45:18;;;;;;;3.75;1.63;;;19.60;62.20;;;;;;5031027;28;20525;-86
2021/08/27 11:47:45;;;;;;;3.88;1.45;;;19.40;61.90;;;;;;5016913;28;20026;-86
2021/08/27 11:50:23;;;;;;;5.53;2.28;;;19.50;63.10;;;;;;5036820;28;20044;-86
2021/08/27 11:52:50;;;;;;;5.57;1.95;;;19.60;63.50;;;;;;5012521;28;20025;-84
2021/08/27 11:55:16;;;;;;;4.60;1.88;;;19.80;62.80;;;;;;5032783;28;20037;-84
2021/08/27 11:57:53;;;;;;;4.40;1.70;;;19.90;62.50;;;;;;5013342;28;20474;-85
2021/08/27 12:00:21;;;;;;;4.00;1.27;;;20.20;63.00;;;;;;5002401;28;20443;-85
2021/08/27 12:02:54;;;;;;;3.22;1.50;;;20.30;61.10;;;;;;5031474;28;20017;-85
2021/08/27 12:05:20;;;;;;;6.18;2.38;;;20.20;61.30;;;;;;5032431;28;20029;-85
2021/08/27 12:07:52;;;;;;;4.90;2.00;;;20.20;61.00;;;;;;5013087;28;20125;-85
2021/08/27 12:10:19;;;;;;;6.25;2.17;;;20.10;61.40;;;;;;5016143;28;20571;-90
2021/08/27 12:12:47;;;;;;;6.00;1.90;;;20.20;61.70;;;;;;5019378;28;20375;-90
2021/08/27 12:15:16;;;;;;;5.32;1.90;;;20.20;61.70;;;;;;5031374;28;20069;-87
2021/08/27 12:18:02;;;;;;;5.00;1.90;;;20.30;61.60;;;;;;5015175;28;20025;-86
2021/08/27 12:20:34;;;;;;;3.80;1.50;;;20.10;61.10;;;;;;5011265;28;20478;-84
2021/08/27 12:23:06;;;;;;;4.60;1.80;;;20.00;61.70;;;;;;5013961;28;20106;-87
2021/08/27 12:25:37;;;;;;;4.88;1.80;;;20.00;62.20;;;;;;5017893;28;20498;-86
2021/08/27 12:28:04;;;;;;;4.05;1.80;;;20.10;62.20;;;;;;5020579;28;20021;-84
2021/08/27 12:30:30;;;;;;;4.88;1.73;;;20.20;62.70;;;;;;5028123;28;20119;-84
2021/08/27 12:32:57;;;;;;;5.18;1.52;;;20.40;61.90;;;;;;5046665;28;20513;-85
2021/08/27 12:35:29;;;;;;;5.85;2.33;;;20.60;61.80;;;;;;5018103;28;20025;-84
2021/08/27 12:37:56;;;;;;;5.03;1.90;;;20.60;61.20;;;;;;5016172;28;20021;-84
2021/08/27 12:40:23;;;;;;;4.68;1.65;;;20.50;60.70;;;;;;5016757;28;20049;-84
2021/08/27 12:43:00;;;;;;;4.70;1.75;;;20.50;60.20;;;;;;5015351;28;20017;-82
2021/08/27 12:45:26;;;;;;;6.22;1.80;;;20.50;60.10;;;;;;5013538;28;20029;-85
2021/08/27 12:48:04;;;;;;;5.10;1.70;;;20.60;60.80;;;;;;5029858;28;20416;-85
2021/08/27 12:50:30;;;;;;;5.80;1.98;;;20.70;60.70;;;;;;5025123;28;20150;-82
2021/08/27 12:53:04;;;;;;;3.45;1.83;;;20.80;60.50;;;;;;5012924;28;20040;-85
2021/08/27 12:55:32;;;;;;;7.47;2.20;;;20.80;60.40;;;;;;5033188;28;20029;-84
2021/08/27 12:57:57;;;;;;;6.65;2.10;;;20.80;59.80;;;;;;5017252;28;20152;-83
2021/08/27 13:00:28;;;;;;;4.43;1.60;;;20.70;59.50;;;;;;5031206;28;20127;-85
2021/08/27 13:03:05;;;;;;;4.78;1.98;;;20.70;60.30;;;;;;5012447;28;20032;-83
2021/08/27 13:05:38;;;;;;;4.97;2.00;;;20.70;59.40;;;;;;5029162;28;20405;-83
2021/08/27 13:08:16;;;;;;;5.95;1.90;;;20.60;59.60;;;;;;5032797;28;20064;-82
2021/08/27 13:11:02;;;;;;;5.28;1.92;;;20.70;59.40;;;;;;5016387;28;20053;-83
2021/08/27 13:13:32;;;;;;;4.32;1.70;;;20.80;60.50;;;;;;5024353;28;20394;-83
2021/08/27 13:16:15;;;;;;;4.85;1.80;;;20.80;58.80;;;;;;5028042;28;20102;-83
2021/08/27 13:18:46;;;;;;;5.18;1.70;;;21.00;59.50;;;;;;5017988;28;20037;-82
2021/08/27 13:21:14;;;;;;;4.90;1.73;;;21.10;57.60;;;;;;5028001;28;20033;-83
2021/08/27 13:23:40;;;;;;;4.55;1.63;;;21.20;58.60;;;;;;5029690;28;20385;-83
2021/08/27 13:26:09;;;;;;;4.60;1.90;;;21.20;57.20;;;;;;5019475;28;20112;-83
2021/08/27 13:28:36;;;;;;;6.93;1.83;;;21.20;57.60;;;;;;5037438;28;20044;-83
2021/08/27 13:31:02;;;;;;;3.85;1.50;;;21.10;57.40;;;;;;5020153;28;20052;-83
2021/08/27 13:33:28;;;;;;;4.05;1.63;;;21.00;58.00;;;;;;5034806;28;20051;-80
2021/08/27 13:35:53;;;;;;;4.80;1.73;;;20.90;57.90;;;;;;5034418;28;20029;-82
2021/08/27 13:38:19;;;;;;;5.80;2.00;;;20.80;58.50;;;;;;5018519;28;20409;-85
2021/08/27 13:40:45;;;;;;;4.90;2.22;;;20.60;58.40;;;;;;5031561;28;20405;-83
2021/08/27 13:43:11;;;;;;;3.20;1.80;;;20.50;59.30;;;;;;5015551;28;20018;-82
2021/08/27 13:45:36;;;;;;;5.03;1.95;;;20.50;59.40;;;;;;5032318;28;20025;-82
2021/08/27 13:48:03;;;;;;;4.53;1.73;;;20.70;60.10;;;;;;5032651;28;20032;-82
2021/08/27 13:50:28;;;;;;;7.97;2.10;;;20.90;60.10;;;;;;5041485;28;20497;-83
2021/08/27 13:52:54;;;;;;;4.47;1.77;;;20.90;57.90;;;;;;5019879;28;20084;-83
2021/08/27 13:55:22;;;;;;;4.80;1.77;;;20.90;58.00;;;;;;5002750;28;20407;-81
2021/08/27 13:57:49;;;;;;;4.30;2.03;;;20.90;58.20;;;;;;5002933;28;20026;-81
2021/08/27 14:00:17;;;;;;;8.70;2.20;;;20.90;58.30;;;;;;5032355;28;20037;-82
2021/08/27 14:02:43;;;;;;;5.28;1.92;;;20.90;58.10;;;;;;5024714;28;20029;-81
2021/08/27 14:05:10;;;;;;;4.93;1.88;;;20.90;58.20;;;;;;5030570;28;20026;-81
2021/08/27 14:07:36;;;;;;;7.05;2.10;;;20.70;58.70;;;;;;5015685;28;20045;-80
2021/08/27 14:10:05;;;;;;;4.75;2.03;;;20.60;59.10;;;;;;5024846;28;20045;-81
2021/08/27 14:12:31;;;;;;;3.42;1.67;;;20.40;59.30;;;;;;5028728;28;20489;-81
2021/08/27 14:14:56;;;;;;;7.63;2.10;;;20.30;59.70;;;;;;5031713;28;20048;-82
2021/08/27 14:17:22;;;;;;;5.15;1.90;;;20.30;61.10;;;;;;5036665;28;20032;-81
2021/08/27 14:19:48;;;;;;;3.85;2.05;;;20.70;60.70;;;;;;5043957;28;20161;-80
2021/08/27 14:22:13;;;;;;;4.75;2.00;;;21.10;60.10;;;;;;5036104;28;20029;-81
2021/08/27 14:24:39;;;;;;;5.10;1.60;;;21.30;58.00;;;;;;5030374;28;20597;-81
2021/08/27 14:27:05;;;;;;;5.03;1.92;;;21.40;58.40;;;;;;5014299;28;20037;-81
2021/08/27 14:29:31;;;;;;;5.03;2.20;;;21.40;57.40;;;;;;5019700;28;20409;-81
2021/08/27 14:31:57;;;;;;;4.43;1.80;;;21.30;56.80;;;;;;5034627;28;20042;-81
2021/08/27 14:34:23;;;;;;;5.30;2.10;;;21.10;57.40;;;;;;5020708;28;20632;-82
2021/08/27 14:36:49;;;;;;;5.10;2.00;;;20.80;58.00;;;;;;5009422;28;20029;-83
2021/08/27 14:39:15;;;;;;;4.85;1.80;;;20.60;58.90;;;;;;5013990;28;20033;-83
2021/08/27 14:41:41;;;;;;;5.53;2.15;;;20.50;59.40;;;;;;5024162;28;20483;-83
2021/08/27 14:44:07;;;;;;;4.68;2.10;;;20.60;60.90;;;;;;5028954;28;20026;-84
2021/08/27 14:46:33;;;;;;;5.72;2.20;;;20.60;60.10;;;;;;5033925;28;20044;-81
2021/08/27 14:48:59;;;;;;;6.60;2.15;;;20.60;59.60;;;;;;5033692;28;20030;-82
2021/08/27 14:51:26;;;;;;;6.38;1.88;;;20.80;60.20;;;;;;5034021;28;20757;-81
2021/08/27 14:53:55;;;;;;;5.10;2.30;;;20.80;60.40;;;;;;5032487;28;20080;-81
2021/08/27 14:56:21;;;;;;;7.10;2.40;;;21.00;60.20;;;;;;5003175;28;20368;-84
2021/08/27 14:58:46;;;;;;;6.28;2.40;;;22.50;58.30;;;;;;5033481;28;20417;-84
2021/08/27 15:01:12;;;;;;;4.90;1.98;;;24.30;55.00;;;;;;5034129;28;20024;-79
2021/08/27 15:03:38;;;;;;;5.00;1.98;;;25.80;51.40;;;;;;5028281;28;20029;-80
2021/08/27 15:06:03;;;;;;;4.22;2.20;;;27.10;48.60;;;;;;5007593;28;20034;-79
2021/08/27 15:08:29;;;;;;;4.55;2.15;;;27.60;44.40;;;;;;5021189;28;20273;-78